sensor_id;sensor_type;location;lat;lon;timestamp;pressure;altitude;pressure_sealevel;temperature;humidity
9307;BME280;4691;47.612;7.610;2023-02-19T00:01:16;99467.19;;;11.08;100.00
9307;BME280;4691;47.612;7.610;2023-02-19T00:03:47;99469.13;;;11.06;100.00
9307;BME280;4691;47.612;7.610;2023-02-19T00:06:14;99451.97;;;11.08;100.00
9307;BME280;4691;47.612;7.610;2023-02-19T00:08:39;99447.47;;;11.09;100.00
9307;BME280;4691;47.612;7.610;2023-02-19T00:11:17;99454.97;;;11.04;100.00
9307;BME280;4691;47.612;7.610;2023-02-19T00:13:45;99461.19;;;11.04;100.00
9307;BME280;4691;47.612;7.610;2023-02-19T00:16:13;99451.53;;;11.02;100.00
9307;BME280;4691;47.612;7.610;2023-02-19T00:18:40;99451.97;;;10.96;100.00
9307;BME280;4691;47.612;7.610;2023-02-19T00:21:05;99455.63;;;10.95;100.00
9307;BME280;4691;47.612;7.610;2023-02-19T00:23:31;99452.19;;;10.93;100.00
9307;BME280;4691;47.612;7.610;2023-02-19T00:26:01;99472.09;;;10.88;100.00
9307;BME280;4691;47.612;7.610;2023-02-19T00:28:26;99482.56;;;10.92;100.00
9307;BME280;4691;47.612;7.610;2023-02-19T00:30:51;99490.81;;;10.88;100.00
9307;BME280;4691;47.612;7.610;2023-02-19T00:33:17;99498.31;;;10.83;100.00
9307;BME280;4691;47.612;7.610;2023-02-19T00:35:42;99508.06;;;10.84;100.00
9307;BME280;4691;47.612;7.610;2023-02-19T00:38:07;99481.94;;;10.88;100.00
9307;BME280;4691;47.612;7.610;2023-02-19T00:40:32;99457.00;;;10.87;100.00
9307;BME280;4691;47.612;7.610;2023-02-19T00:42:58;99455.50;;;10.83;100.00
9307;BME280;4691;47.612;7.610;2023-02-19T00:45:23;99442.88;;;10.85;100.00
9307;BME280;4691;47.612;7.610;2023-02-19T00:47:48;99419.13;;;10.81;100.00
9307;BME280;4691;47.612;7.610;2023-02-19T00:50:14;99390.13;;;10.87;100.00
9307;BME280;4691;47.612;7.610;2023-02-19T00:52:39;99364.66;;;10.82;100.00
9307;BME280;4691;47.612;7.610;2023-02-19T00:55:05;99346.25;;;10.77;100.00
9307;BME280;4691;47.612;7.610;2023-02-19T00:57:30;99324.84;;;10.77;100.00
9307;BME280;4691;47.612;7.610;2023-02-19T00:59:55;99299.72;;;10.80;100.00
9307;BME280;4691;47.612;7.610;2023-02-19T01:02:21;99278.09;;;10.70;100.00
9307;BME280;4691;47.612;7.610;2023-02-19T01:04:46;99268.38;;;10.69;100.00
9307;BME280;4691;47.612;7.610;2023-02-19T01:07:11;99272.97;;;10.67;100.00
9307;BME280;4691;47.612;7.610;2023-02-19T01:09:37;99281.94;;;10.66;100.00
9307;BME280;4691;47.612;7.610;2023-02-19T01:12:06;99287.44;;;10.64;100.00
9307;BME280;4691;47.612;7.610;2023-02-19T01:14:31;99279.09;;;10.56;100.00
9307;BME280;4691;47.612;7.610;2023-02-19T01:16:57;99271.16;;;10.55;100.00
9307;BME280;4691;47.612;7.610;2023-02-19T01:19:22;99282.31;;;10.49;100.00
9307;BME280;4691;47.612;7.610;2023-02-19T01:21:47;99271.38;;;10.52;100.00
9307;BME280;4691;47.612;7.610;2023-02-19T01:24:13;99256.72;;;10.44;100.00
9307;BME280;4691;47.612;7.610;2023-02-19T01:26:38;99240.81;;;10.43;100.00
9307;BME280;4691;47.612;7.610;2023-02-19T01:29:04;99226.69;;;10.41;100.00
9307;BME280;4691;47.612;7.610;2023-02-19T01:31:30;99231.63;;;10.34;100.00
9307;BME280;4691;47.612;7.610;2023-02-19T01:33:57;99227.78;;;10.38;100.00
9307;BME280;4691;47.612;7.610;2023-02-19T01:36:24;99235.25;;;10.33;100.00
9307;BME280;4691;47.612;7.610;2023-02-19T01:38:49;99238.03;;;10.32;100.00
9307;BME280;4691;47.612;7.610;2023-02-19T01:41:17;99237.41;;;10.28;100.00
9307;BME280;4691;47.612;7.610;2023-02-19T01:46:44;99258.00;;;10.26;100.00
9307;BME280;4691;47.612;7.610;2023-02-19T01:49:30;99248.09;;;10.28;100.00
9307;BME280;4691;47.612;7.610;2023-02-19T01:52:30;99266.00;;;10.26;100.00
9307;BME280;4691;47.612;7.610;2023-02-19T01:54:59;99279.91;;;10.18;100.00
9307;BME280;4691;47.612;7.610;2023-02-19T01:57:32;99290.59;;;10.18;100.00
9307;BME280;4691;47.612;7.610;2023-02-19T02:00:03;99259.81;;;10.25;100.00
9307;BME280;4691;47.612;7.610;2023-02-19T02:02:30;99270.72;;;10.22;100.00
9307;BME280;4691;47.612;7.610;2023-02-19T02:04:56;99277.31;;;10.17;100.00
9307;BME280;4691;47.612;7.610;2023-02-19T02:07:24;99261.09;;;10.20;100.00
9307;BME280;4691;47.612;7.610;2023-02-19T02:10:08;99227.09;;;10.22;100.00
9307;BME280;4691;47.612;7.610;2023-02-19T02:12:50;99239.72;;;10.20;100.00
9307;BME280;4691;47.612;7.610;2023-02-19T02:15:16;99241.44;;;10.21;100.00
9307;BME280;4691;47.612;7.610;2023-02-19T02:17:55;99236.06;;;10.21;100.00
9307;BME280;4691;47.612;7.610;2023-02-19T02:20:26;99248.81;;;10.17;100.00
9307;BME280;4691;47.612;7.610;2023-02-19T02:31:34;99262.19;;;10.17;100.00
9307;BME280;4691;47.612;7.610;2023-02-19T02:34:06;99279.28;;;10.15;100.00
9307;BME280;4691;47.612;7.610;2023-02-19T02:36:39;99299.06;;;10.12;100.00
9307;BME280;4691;47.612;7.610;2023-02-19T02:39:08;99306.41;;;10.09;100.00
9307;BME280;4691;47.612;7.610;2023-02-19T02:41:42;99308.13;;;10.10;100.00
9307;BME280;4691;47.612;7.610;2023-02-19T02:44:08;99316.03;;;10.11;100.00
9307;BME280;4691;47.612;7.610;2023-02-19T02:46:34;99314.97;;;10.14;100.00
9307;BME280;4691;47.612;7.610;2023-02-19T02:49:04;99319.88;;;10.07;100.00
9307;BME280;4691;47.612;7.610;2023-02-19T02:51:39;99321.69;;;10.07;100.00
9307;BME280;4691;47.612;7.610;2023-02-19T02:54:19;99300.31;;;10.07;100.00
9307;BME280;4691;47.612;7.610;2023-02-19T02:57:06;99301.06;;;10.09;100.00
9307;BME280;4691;47.612;7.610;2023-02-19T02:59:36;99298.91;;;10.01;100.00
9307;BME280;4691;47.612;7.610;2023-02-19T03:02:16;99325.00;;;9.97;100.00
9307;BME280;4691;47.612;7.610;2023-02-19T03:04:51;99322.88;;;10.02;100.00
9307;BME280;4691;47.612;7.610;2023-02-19T03:07:44;99315.78;;;10.01;100.00
9307;BME280;4691;47.612;7.610;2023-02-19T03:10:16;99330.13;;;10.00;100.00
9307;BME280;4691;47.612;7.610;2023-02-19T03:12:44;99333.75;;;9.99;100.00
9307;BME280;4691;47.612;7.610;2023-02-19T03:15:34;99343.16;;;9.92;100.00
9307;BME280;4691;47.612;7.610;2023-02-19T03:19:35;99294.28;;;9.90;100.00
9307;BME280;4691;47.612;7.610;2023-02-19T03:22:13;99292.38;;;9.92;100.00
9307;BME280;4691;47.612;7.610;2023-02-19T03:24:53;99273.69;;;9.92;100.00
9307;BME280;4691;47.612;7.610;2023-02-19T03:27:41;99264.91;;;9.90;100.00
9307;BME280;4691;47.612;7.610;2023-02-19T03:30:19;99244.50;;;9.89;100.00
9307;BME280;4691;47.612;7.610;2023-02-19T03:33:09;99233.91;;;9.88;100.00
9307;BME280;4691;47.612;7.610;2023-02-19T03:35:41;99211.91;;;9.84;100.00
9307;BME280;4691;47.612;7.610;2023-02-19T03:38:15;99205.81;;;9.82;100.00
9307;BME280;4691;47.612;7.610;2023-02-19T03:41:06;99206.75;;;9.81;100.00
9307;BME280;4691;47.612;7.610;2023-02-19T03:44:26;99227.06;;;9.84;100.00
9307;BME280;4691;47.612;7.610;2023-02-19T03:46:34;99240.34;;;9.85;100.00
9307;BME280;4691;47.612;7.610;2023-02-19T03:49:09;99236.59;;;9.88;100.00
9307;BME280;4691;47.612;7.610;2023-02-19T03:51:38;99212.88;;;9.83;100.00
9307;BME280;4691;47.612;7.610;2023-02-19T03:54:29;99205.06;;;9.80;100.00
9307;BME280;4691;47.612;7.610;2023-02-19T04:00:22;99226.00;;;9.86;100.00
9307;BME280;4691;47.612;7.610;2023-02-19T04:02:55;99254.84;;;9.81;100.00
9307;BME280;4691;47.612;7.610;2023-02-19T04:05:29;99264.69;;;9.80;100.00
9307;BME280;4691;47.612;7.610;2023-02-19T04:07:58;99291.16;;;9.84;100.00
9307;BME280;4691;47.612;7.610;2023-02-19T04:10:26;99306.91;;;9.88;100.00
9307;BME280;4691;47.612;7.610;2023-02-19T04:12:57;99294.09;;;9.93;100.00
9307;BME280;4691;47.612;7.610;2023-02-19T04:15:28;99297.41;;;9.84;100.00
9307;BME280;4691;47.612;7.610;2023-02-19T04:17:58;99275.81;;;9.87;100.00
9307;BME280;4691;47.612;7.610;2023-02-19T04:20:26;99258.94;;;9.87;100.00
9307;BME280;4691;47.612;7.610;2023-02-19T04:22:54;99275.06;;;9.85;100.00
9307;BME280;4691;47.612;7.610;2023-02-19T04:25:21;99313.59;;;9.81;100.00
9307;BME280;4691;47.612;7.610;2023-02-19T04:27:47;99304.66;;;9.82;100.00
9307;BME280;4691;47.612;7.610;2023-02-19T04:30:13;99289.38;;;9.84;100.00
9307;BME280;4691;47.612;7.610;2023-02-19T04:32:39;99292.91;;;9.85;100.00
9307;BME280;4691;47.612;7.610;2023-02-19T04:35:04;99315.53;;;9.79;100.00
9307;BME280;4691;47.612;7.610;2023-02-19T04:37:30;99320.88;;;9.79;100.00
9307;BME280;4691;47.612;7.610;2023-02-19T04:39:55;99324.28;;;9.81;100.00
9307;BME280;4691;47.612;7.610;2023-02-19T04:42:20;99331.03;;;9.74;100.00
9307;BME280;4691;47.612;7.610;2023-02-19T04:44:46;99333.03;;;9.70;100.00
9307;BME280;4691;47.612;7.610;2023-02-19T04:47:11;99354.38;;;9.70;100.00
9307;BME280;4691;47.612;7.610;2023-02-19T04:49:36;99346.38;;;9.70;100.00
9307;BME280;4691;47.612;7.610;2023-02-19T04:52:02;99340.94;;;9.72;100.00
9307;BME280;4691;47.612;7.610;2023-02-19T04:54:27;99339.63;;;9.65;100.00
9307;BME280;4691;47.612;7.610;2023-02-19T04:56:52;99356.78;;;9.60;100.00
9307;BME280;4691;47.612;7.610;2023-02-19T04:59:18;99365.56;;;9.63;100.00
9307;BME280;4691;47.612;7.610;2023-02-19T05:01:43;99369.50;;;9.57;100.00
9307;BME280;4691;47.612;7.610;2023-02-19T05:04:08;99376.16;;;9.64;100.00
9307;BME280;4691;47.612;7.610;2023-02-19T05:06:34;99375.47;;;9.60;100.00
9307;BME280;4691;47.612;7.610;2023-02-19T05:08:59;99384.25;;;9.63;100.00
9307;BME280;4691;47.612;7.610;2023-02-19T05:11:24;99369.75;;;9.67;100.00
9307;BME280;4691;47.612;7.610;2023-02-19T05:13:50;99344.66;;;9.69;100.00
9307;BME280;4691;47.612;7.610;2023-02-19T05:16:15;99345.53;;;9.70;100.00
9307;BME280;4691;47.612;7.610;2023-02-19T05:18:42;99349.88;;;9.71;100.00
9307;BME280;4691;47.612;7.610;2023-02-19T05:21:09;99335.38;;;9.75;100.00
9307;BME280;4691;47.612;7.610;2023-02-19T05:23:34;99324.72;;;9.75;100.00
9307;BME280;4691;47.612;7.610;2023-02-19T05:26:24;99318.41;;;9.76;100.00
9307;BME280;4691;47.612;7.610;2023-02-19T05:28:51;99334.84;;;9.70;100.00
9307;BME280;4691;47.612;7.610;2023-02-19T05:31:16;99361.13;;;9.76;100.00
9307;BME280;4691;47.612;7.610;2023-02-19T05:33:42;99359.22;;;9.78;100.00
9307;BME280;4691;47.612;7.610;2023-02-19T05:36:10;99362.19;;;9.73;100.00
9307;BME280;4691;47.612;7.610;2023-02-19T05:38:36;99396.06;;;9.73;100.00
9307;BME280;4691;47.612;7.610;2023-02-19T05:41:11;99398.84;;;9.71;100.00
9307;BME280;4691;47.612;7.610;2023-02-19T05:43:38;99419.16;;;9.74;100.00
9307;BME280;4691;47.612;7.610;2023-02-19T05:46:04;99434.41;;;9.72;100.00
9307;BME280;4691;47.612;7.610;2023-02-19T05:48:29;99451.38;;;9.71;100.00
9307;BME280;4691;47.612;7.610;2023-02-19T05:51:03;99464.38;;;9.63;100.00
9307;BME280;4691;47.612;7.610;2023-02-19T05:53:29;99494.72;;;9.62;100.00
9307;BME280;4691;47.612;7.610;2023-02-19T05:55:54;99483.06;;;9.63;100.00
9307;BME280;4691;47.612;7.610;2023-02-19T05:58:20;99491.47;;;9.56;100.00
9307;BME280;4691;47.612;7.610;2023-02-19T06:00:45;99509.31;;;9.56;100.00
9307;BME280;4691;47.612;7.610;2023-02-19T06:03:10;99523.72;;;9.53;100.00
9307;BME280;4691;47.612;7.610;2023-02-19T06:05:36;99532.94;;;9.48;100.00
9307;BME280;4691;47.612;7.610;2023-02-19T06:08:02;99559.75;;;9.46;100.00
9307;BME280;4691;47.612;7.610;2023-02-19T06:10:27;99580.34;;;9.44;100.00
9307;BME280;4691;47.612;7.610;2023-02-19T06:12:53;99603.59;;;9.42;100.00
9307;BME280;4691;47.612;7.610;2023-02-19T06:15:19;99653.84;;;9.35;100.00
9307;BME280;4691;47.612;7.610;2023-02-19T06:17:44;99717.19;;;9.32;100.00
9307;BME280;4691;47.612;7.610;2023-02-19T06:20:09;99770.59;;;9.32;100.00
9307;BME280;4691;47.612;7.610;2023-02-19T06:22:35;99813.47;;;9.29;100.00
9307;BME280;4691;47.612;7.610;2023-02-19T06:25:00;99835.00;;;9.26;100.00
9307;BME280;4691;47.612;7.610;2023-02-19T06:27:25;99872.38;;;9.26;100.00
9307;BME280;4691;47.612;7.610;2023-02-19T06:29:50;99910.78;;;9.23;100.00
9307;BME280;4691;47.612;7.610;2023-02-19T06:32:16;99938.66;;;9.18;100.00
9307;BME280;4691;47.612;7.610;2023-02-19T06:34:41;99972.41;;;9.19;100.00
9307;BME280;4691;47.612;7.610;2023-02-19T06:37:06;100009.94;;;9.15;100.00
9307;BME280;4691;47.612;7.610;2023-02-19T06:39:32;100068.81;;;9.12;100.00
9307;BME280;4691;47.612;7.610;2023-02-19T06:41:57;100111.34;;;9.15;100.00
9307;BME280;4691;47.612;7.610;2023-02-19T06:44:23;100134.03;;;9.07;100.00
9307;BME280;4691;47.612;7.610;2023-02-19T06:46:49;100158.06;;;9.07;100.00
9307;BME280;4691;47.612;7.610;2023-02-19T06:49:15;100185.66;;;9.06;100.00
9307;BME280;4691;47.612;7.610;2023-02-19T06:51:41;100217.13;;;8.99;100.00
9307;BME280;4691;47.612;7.610;2023-02-19T06:54:06;100267.91;;;8.98;100.00
9307;BME280;4691;47.612;7.610;2023-02-19T06:56:36;100297.47;;;8.93;100.00
9307;BME280;4691;47.612;7.610;2023-02-19T06:59:05;100319.81;;;8.90;100.00
9307;BME280;4691;47.612;7.610;2023-02-19T07:01:33;100338.50;;;8.90;100.00
9307;BME280;4691;47.612;7.610;2023-02-19T07:03:58;100363.50;;;8.88;100.00
9307;BME280;4691;47.612;7.610;2023-02-19T07:06:25;100388.31;;;8.90;100.00
9307;BME280;4691;47.612;7.610;2023-02-19T07:08:51;100410.31;;;8.95;100.00
9307;BME280;4691;47.612;7.610;2023-02-19T07:11:18;100452.06;;;8.96;100.00
9307;BME280;4691;47.612;7.610;2023-02-19T07:13:43;100462.97;;;8.91;100.00
9307;BME280;4691;47.612;7.610;2023-02-19T07:16:09;100486.97;;;8.91;100.00
9307;BME280;4691;47.612;7.610;2023-02-19T07:18:35;100492.34;;;9.10;100.00
9307;BME280;4691;47.612;7.610;2023-02-19T07:21:06;100508.00;;;8.99;100.00
9307;BME280;4691;47.612;7.610;2023-02-19T07:23:32;100519.72;;;8.95;100.00
9307;BME280;4691;47.612;7.610;2023-02-19T07:25:58;100535.59;;;8.98;100.00
9307;BME280;4691;47.612;7.610;2023-02-19T07:28:23;100549.44;;;9.06;100.00
9307;BME280;4691;47.612;7.610;2023-02-19T07:30:49;100578.03;;;9.04;100.00
9307;BME280;4691;47.612;7.610;2023-02-19T07:33:15;100576.88;;;9.10;100.00
9307;BME280;4691;47.612;7.610;2023-02-19T07:35:47;100577.09;;;9.05;100.00
9307;BME280;4691;47.612;7.610;2023-02-19T07:38:20;100584.56;;;8.97;100.00
9307;BME280;4691;47.612;7.610;2023-02-19T07:40:56;100564.03;;;8.99;100.00
9307;BME280;4691;47.612;7.610;2023-02-19T07:43:23;100551.59;;;8.98;100.00
9307;BME280;4691;47.612;7.610;2023-02-19T07:45:49;100539.88;;;9.02;100.00
9307;BME280;4691;47.612;7.610;2023-02-19T07:48:14;100528.00;;;9.09;100.00
9307;BME280;4691;47.612;7.610;2023-02-19T07:50:40;100523.16;;;9.18;100.00
9307;BME280;4691;47.612;7.610;2023-02-19T07:53:05;100503.78;;;9.33;100.00
9307;BME280;4691;47.612;7.610;2023-02-19T07:55:31;100475.63;;;9.26;100.00
9307;BME280;4691;47.612;7.610;2023-02-19T07:57:58;100463.63;;;9.15;100.00
9307;BME280;4691;47.612;7.610;2023-02-19T08:00:23;100457.44;;;9.15;100.00
9307;BME280;4691;47.612;7.610;2023-02-19T08:02:50;100451.16;;;9.35;100.00
9307;BME280;4691;47.612;7.610;2023-02-19T08:05:33;100413.50;;;9.41;100.00
9307;BME280;4691;47.612;7.610;2023-02-19T08:07:59;100400.56;;;9.32;100.00
9307;BME280;4691;47.612;7.610;2023-02-19T08:10:25;100384.34;;;9.36;100.00
9307;BME280;4691;47.612;7.610;2023-02-19T08:13:11;100358.59;;;9.35;100.00
9307;BME280;4691;47.612;7.610;2023-02-19T08:15:52;100341.41;;;9.41;100.00
9307;BME280;4691;47.612;7.610;2023-02-19T08:18:21;100331.25;;;9.67;100.00
9307;BME280;4691;47.612;7.610;2023-02-19T08:20:47;100283.63;;;9.75;100.00
9307;BME280;4691;47.612;7.610;2023-02-19T08:23:12;100251.28;;;9.64;100.00
9307;BME280;4691;47.612;7.610;2023-02-19T08:25:39;100218.25;;;9.82;100.00
9307;BME280;4691;47.612;7.610;2023-02-19T08:28:05;100177.44;;;10.12;100.00
9307;BME280;4691;47.612;7.610;2023-02-19T08:30:32;100112.69;;;10.07;100.00
9307;BME280;4691;47.612;7.610;2023-02-19T08:32:58;100076.59;;;10.15;100.00
9307;BME280;4691;47.612;7.610;2023-02-19T08:35:24;100062.16;;;9.86;100.00
9307;BME280;4691;47.612;7.610;2023-02-19T08:37:49;100084.31;;;9.88;100.00
9307;BME280;4691;47.612;7.610;2023-02-19T08:40:15;100118.34;;;9.69;100.00
9307;BME280;4691;47.612;7.610;2023-02-19T08:42:42;100140.34;;;9.74;100.00
9307;BME280;4691;47.612;7.610;2023-02-19T08:47:35;100117.72;;;9.97;100.00
9307;BME280;4691;47.612;7.610;2023-02-19T08:50:01;100075.19;;;9.92;100.00
9307;BME280;4691;47.612;7.610;2023-02-19T08:52:29;100069.31;;;10.01;100.00
9307;BME280;4691;47.612;7.610;2023-02-19T08:54:54;100020.19;;;10.04;100.00
9307;BME280;4691;47.612;7.610;2023-02-19T08:57:20;100001.41;;;9.90;100.00
9307;BME280;4691;47.612;7.610;2023-02-19T08:59:45;99982.69;;;10.06;100.00
9307;BME280;4691;47.612;7.610;2023-02-19T09:02:11;99931.84;;;10.07;100.00
9307;BME280;4691;47.612;7.610;2023-02-19T09:04:37;99940.59;;;9.79;100.00
9307;BME280;4691;47.612;7.610;2023-02-19T09:07:02;99916.28;;;10.14;100.00
9307;BME280;4691;47.612;7.610;2023-02-19T09:09:32;99863.03;;;10.11;100.00
9307;BME280;4691;47.612;7.610;2023-02-19T09:11:57;99811.56;;;10.52;100.00
9307;BME280;4691;47.612;7.610;2023-02-19T09:14:23;99774.06;;;10.09;100.00
9307;BME280;4691;47.612;7.610;2023-02-19T09:16:48;99737.09;;;10.45;100.00
9307;BME280;4691;47.612;7.610;2023-02-19T09:19:14;99697.69;;;10.19;100.00
9307;BME280;4691;47.612;7.610;2023-02-19T09:21:41;99680.72;;;10.34;100.00
9307;BME280;4691;47.612;7.610;2023-02-19T09:24:07;99643.44;;;10.60;100.00
9307;BME280;4691;47.612;7.610;2023-02-19T09:26:33;99627.06;;;10.37;100.00
9307;BME280;4691;47.612;7.610;2023-02-19T09:29:01;99619.06;;;10.23;100.00
9307;BME280;4691;47.612;7.610;2023-02-19T09:31:26;99574.91;;;10.44;100.00
9307;BME280;4691;47.612;7.610;2023-02-19T09:33:52;99524.44;;;10.53;100.00
9307;BME280;4691;47.612;7.610;2023-02-19T09:36:18;99476.66;;;10.74;100.00
9307;BME280;4691;47.612;7.610;2023-02-19T09:38:44;99429.19;;;10.64;100.00
9307;BME280;4691;47.612;7.610;2023-02-19T09:41:42;99376.53;;;10.65;100.00
9307;BME280;4691;47.612;7.610;2023-02-19T09:44:12;99357.72;;;10.66;100.00
9307;BME280;4691;47.612;7.610;2023-02-19T09:46:45;99353.97;;;10.69;100.00
9307;BME280;4691;47.612;7.610;2023-02-19T09:49:14;99345.19;;;10.41;100.00
9307;BME280;4691;47.612;7.610;2023-02-19T09:51:45;99373.19;;;10.36;100.00
9307;BME280;4691;47.612;7.610;2023-02-19T09:54:24;99396.88;;;10.15;100.00
9307;BME280;4691;47.612;7.610;2023-02-19T09:56:51;99439.00;;;10.24;100.00
9307;BME280;4691;47.612;7.610;2023-02-19T09:59:22;99467.69;;;10.08;100.00
9307;BME280;4691;47.612;7.610;2023-02-19T10:02:14;99504.69;;;10.14;100.00
9307;BME280;4691;47.612;7.610;2023-02-19T10:04:40;99488.84;;;10.25;100.00
9307;BME280;4691;47.612;7.610;2023-02-19T10:07:14;99485.63;;;10.20;100.00
9307;BME280;4691;47.612;7.610;2023-02-19T10:09:48;99460.97;;;10.29;100.00
9307;BME280;4691;47.612;7.610;2023-02-19T10:12:18;99423.69;;;10.40;100.00
9307;BME280;4691;47.612;7.610;2023-02-19T10:14:50;99373.22;;;10.74;100.00
9307;BME280;4691;47.612;7.610;2023-02-19T10:17:26;99342.59;;;10.53;100.00
9307;BME280;4691;47.612;7.610;2023-02-19T10:19:54;99344.44;;;10.65;100.00
9307;BME280;4691;47.612;7.610;2023-02-19T10:22:25;99280.66;;;10.84;100.00
9307;BME280;4691;47.612;7.610;2023-02-19T10:24:53;99272.63;;;10.84;100.00
9307;BME280;4691;47.612;7.610;2023-02-19T10:27:20;99270.47;;;10.89;100.00
9307;BME280;4691;47.612;7.610;2023-02-19T10:29:48;99264.13;;;11.27;100.00
9307;BME280;4691;47.612;7.610;2023-02-19T10:32:21;99241.47;;;11.20;100.00
9307;BME280;4691;47.612;7.610;2023-02-19T10:35:11;99240.13;;;11.02;100.00
9307;BME280;4691;47.612;7.610;2023-02-19T10:37:44;99241.97;;;11.01;100.00
9307;BME280;4691;47.612;7.610;2023-02-19T10:40:22;99244.97;;;10.97;100.00
9307;BME280;4691;47.612;7.610;2023-02-19T10:42:52;99255.00;;;10.69;100.00
9307;BME280;4691;47.612;7.610;2023-02-19T10:45:28;99254.66;;;10.61;100.00
9307;BME280;4691;47.612;7.610;2023-02-19T10:47:56;99267.72;;;10.65;100.00
9307;BME280;4691;47.612;7.610;2023-02-19T10:50:32;99274.97;;;10.76;100.00
9307;BME280;4691;47.612;7.610;2023-02-19T10:53:03;99268.59;;;10.53;100.00
9307;BME280;4691;47.612;7.610;2023-02-19T10:57:55;99271.59;;;10.74;100.00
9307;BME280;4691;47.612;7.610;2023-02-19T11:00:26;99260.78;;;10.63;100.00
9307;BME280;4691;47.612;7.610;2023-02-19T11:03:19;99262.69;;;10.61;100.00
9307;BME280;4691;47.612;7.610;2023-02-19T11:06:16;99259.63;;;10.41;100.00
9307;BME280;4691;47.612;7.610;2023-02-19T11:11:29;99259.59;;;10.67;100.00
9307;BME280;4691;47.612;7.610;2023-02-19T11:14:00;99249.28;;;10.86;100.00
9307;BME280;4691;47.612;7.610;2023-02-19T11:16:43;99245.00;;;10.84;100.00
9307;BME280;4691;47.612;7.610;2023-02-19T11:19:22;99263.19;;;10.79;100.00
9307;BME280;4691;47.612;7.610;2023-02-19T11:21:51;99270.75;;;10.35;100.00
9307;BME280;4691;47.612;7.610;2023-02-19T11:24:37;99260.47;;;10.55;100.00
9307;BME280;4691;47.612;7.610;2023-02-19T11:27:06;99240.38;;;10.49;100.00
9307;BME280;4691;47.612;7.610;2023-02-19T11:29:40;99240.91;;;10.41;100.00
9307;BME280;4691;47.612;7.610;2023-02-19T11:32:26;99252.34;;;10.56;100.00
9307;BME280;4691;47.612;7.610;2023-02-19T11:35:13;99260.78;;;10.63;100.00
9307;BME280;4691;47.612;7.610;2023-02-19T11:37:52;99249.09;;;10.77;100.00
9307;BME280;4691;47.612;7.610;2023-02-19T11:40:23;99239.00;;;10.93;100.00
9307;BME280;4691;47.612;7.610;2023-02-19T11:44:18;99221.19;;;11.05;100.00
9307;BME280;4691;47.612;7.610;2023-02-19T11:54:34;99226.25;;;11.69;100.00
9307;BME280;4691;47.612;7.610;2023-02-19T11:57:15;99236.00;;;11.81;100.00
9307;BME280;4691;47.612;7.610;2023-02-19T12:00:02;99237.53;;;11.61;100.00
9307;BME280;4691;47.612;7.610;2023-02-19T12:08:13;99222.88;;;11.54;100.00
9307;BME280;4691;47.612;7.610;2023-02-19T12:24:54;99223.53;;;11.33;100.00
9307;BME280;4691;47.612;7.610;2023-02-19T12:38:34;99214.28;;;11.38;100.00
9307;BME280;4691;47.612;7.610;2023-02-19T12:41:23;99221.94;;;11.31;100.00
9307;BME280;4691;47.612;7.610;2023-02-19T12:44:07;99228.63;;;11.25;100.00
9307;BME280;4691;47.612;7.610;2023-02-19T12:46:41;99225.19;;;11.23;100.00
9307;BME280;4691;47.612;7.610;2023-02-19T12:49:21;99231.63;;;11.21;100.00
9307;BME280;4691;47.612;7.610;2023-02-19T12:52:10;99232.88;;;11.28;100.00
9307;BME280;4691;47.612;7.610;2023-02-19T12:54:46;99244.88;;;11.22;100.00
9307;BME280;4691;47.612;7.610;2023-02-19T12:57:32;99247.22;;;11.27;100.00
9307;BME280;4691;47.612;7.610;2023-02-19T13:00:48;99254.81;;;11.33;100.00
9307;BME280;4691;47.612;7.610;2023-02-19T13:05:41;99239.63;;;11.45;100.00
9307;BME280;4691;47.612;7.610;2023-02-19T13:08:33;99251.00;;;11.48;100.00
9307;BME280;4691;47.612;7.610;2023-02-19T13:11:13;99245.56;;;11.37;100.00
9307;BME280;4691;47.612;7.610;2023-02-19T13:13:45;99232.59;;;11.44;100.00
9307;BME280;4691;47.612;7.610;2023-02-19T13:16:14;99222.41;;;11.60;100.00
9307;BME280;4691;47.612;7.610;2023-02-19T13:18:46;99227.84;;;11.83;100.00
9307;BME280;4691;47.612;7.610;2023-02-19T13:21:14;99251.28;;;11.92;100.00
9307;BME280;4691;47.612;7.610;2023-02-19T13:24:04;99242.53;;;11.90;100.00
9307;BME280;4691;47.612;7.610;2023-02-19T13:27:05;99239.84;;;11.66;100.00
9307;BME280;4691;47.612;7.610;2023-02-19T13:35:40;99227.09;;;11.69;100.00
9307;BME280;4691;47.612;7.610;2023-02-19T13:38:15;99230.28;;;11.74;100.00
9307;BME280;4691;47.612;7.610;2023-02-19T13:40:54;99229.84;;;11.92;100.00
9307;BME280;4691;47.612;7.610;2023-02-19T13:43:27;99237.28;;;11.88;100.00
9307;BME280;4691;47.612;7.610;2023-02-19T13:45:57;99243.78;;;12.19;100.00
9307;BME280;4691;47.612;7.610;2023-02-19T13:48:24;99256.13;;;11.87;100.00
9307;BME280;4691;47.612;7.610;2023-02-19T14:04:43;99251.16;;;12.51;100.00
9307;BME280;4691;47.612;7.610;2023-02-19T14:12:18;99241.22;;;11.71;100.00
9307;BME280;4691;47.612;7.610;2023-02-19T14:17:39;99248.41;;;11.47;100.00
9307;BME280;4691;47.612;7.610;2023-02-19T14:25:28;99240.09;;;11.39;100.00
9307;BME280;4691;47.612;7.610;2023-02-19T14:30:26;99247.66;;;11.69;100.00
9307;BME280;4691;47.612;7.610;2023-02-19T14:32:51;99255.56;;;11.70;100.00
9307;BME280;4691;47.612;7.610;2023-02-19T14:35:24;99249.38;;;11.70;100.00
9307;BME280;4691;47.612;7.610;2023-02-19T14:37:52;99242.44;;;11.43;100.00
9307;BME280;4691;47.612;7.610;2023-02-19T14:40:23;99245.75;;;11.47;100.00
9307;BME280;4691;47.612;7.610;2023-02-19T14:42:52;99248.13;;;11.63;100.00
9307;BME280;4691;47.612;7.610;2023-02-19T14:45:19;99258.63;;;11.42;100.00
9307;BME280;4691;47.612;7.610;2023-02-19T14:47:47;99272.75;;;11.44;100.00
9307;BME280;4691;47.612;7.610;2023-02-19T14:50:26;99275.66;;;11.41;100.00
9307;BME280;4691;47.612;7.610;2023-02-19T14:52:53;99283.81;;;11.39;100.00
9307;BME280;4691;47.612;7.610;2023-02-19T14:55:29;99286.59;;;11.38;100.00
9307;BME280;4691;47.612;7.610;2023-02-19T14:57:58;99292.59;;;11.41;100.00
9307;BME280;4691;47.612;7.610;2023-02-19T15:00:32;99295.31;;;11.28;100.00
9307;BME280;4691;47.612;7.610;2023-02-19T15:02:58;99302.50;;;11.28;100.00
9307;BME280;4691;47.612;7.610;2023-02-19T15:05:34;99294.97;;;11.33;100.00
9307;BME280;4691;47.612;7.610;2023-02-19T15:08:03;99287.72;;;11.22;100.00
9307;BME280;4691;47.612;7.610;2023-02-19T15:10:32;99295.03;;;11.20;100.00
9307;BME280;4691;47.612;7.610;2023-02-19T15:13:01;99283.34;;;11.21;100.00